METAR Data
IDs: Format: Raw Decoded Include TAF

Data at: 1948 UTC 26 Sep 2021

METAR for:KCRE (North Myrtle Beach, SC, US)
Text:KCRE 261853Z VRB05KT 10SM FEW060 26/12 A3007 RMK AO1 SLP182 T02610122
Temperature: 26.1°C ( 79°F)
Dewpoint: 12.2°C ( 54°F) [RH = 42%]
Pressure (altimeter):30.07 inches Hg (1018.4 mb) [Sea level pressure: 1018.2 mb]
Winds:variable direction winds at 6 MPH (5 knots; 2.6 m/s)
Visibility:10 or more sm (16+ km)
Ceiling:at least 12,000 feet AGL
Clouds: few clouds at 6000 feet AGL

TAF for:KCRE (North Myrtle Beach, SC, US) issued at 1720 UTC 26 Sep 2021
Text:KCRE 261720Z 2618/2718 33007KT P6SM SKC
Forecast period:1800 UTC 26 September 2021 to 0200 UTC 27 September 2021
Forecast type:FROM: standard forecast or significant change
Winds:from the NNW (330 degrees) at 8 MPH (7 knots; 3.6 m/s)
Visibility:6 or more sm (10+ km)
Ceiling:at least 12,000 feet AGL
Clouds:clear skies
Text:FM270200 00000KT P6SM SKC
Forecast period:0200 to 1700 UTC 27 September 2021
Forecast type:FROM: standard forecast or significant change
Winds:calm
Visibility:6 or more sm (10+ km)
Ceiling:at least 12,000 feet AGL
Clouds:clear skies
Text:FM271700 14004KT P6SM SKC
Forecast period:1700 to 1800 UTC 27 September 2021
Forecast type:FROM: standard forecast or significant change
Winds:from the SE (140 degrees) at 5 MPH (4 knots; 2.1 m/s)
Visibility:6 or more sm (10+ km)
Ceiling:at least 12,000 feet AGL
Clouds:clear skies